sensor_id;sensor_type;location;lat;lon;timestamp;temperature;humidity
52675;DHT22;38569;52.722;6.440;2022-08-21T00:01:16;14.40;99.90
52675;DHT22;38569;52.722;6.440;2022-08-21T00:03:43;14.40;99.90
52675;DHT22;38569;52.722;6.440;2022-08-21T00:06:09;14.40;99.90
52675;DHT22;38569;52.722;6.440;2022-08-21T00:08:34;14.30;99.90
52675;DHT22;38569;52.722;6.440;2022-08-21T00:11:01;14.30;99.90
52675;DHT22;38569;52.722;6.440;2022-08-21T00:13:26;14.30;99.90
52675;DHT22;38569;52.722;6.440;2022-08-21T00:15:52;14.20;99.90
52675;DHT22;38569;52.722;6.440;2022-08-21T00:18:18;14.20;99.90
52675;DHT22;38569;52.722;6.440;2022-08-21T00:20:45;14.20;99.90
52675;DHT22;38569;52.722;6.440;2022-08-21T00:23:12;14.20;99.90
52675;DHT22;38569;52.722;6.440;2022-08-21T00:25:38;14.20;99.90
52675;DHT22;38569;52.722;6.440;2022-08-21T00:28:05;14.20;99.90
52675;DHT22;38569;52.722;6.440;2022-08-21T00:30:33;14.20;99.90
52675;DHT22;38569;52.722;6.440;2022-08-21T00:33:00;14.20;99.90
52675;DHT22;38569;52.722;6.440;2022-08-21T00:35:32;14.20;99.90
52675;DHT22;38569;52.722;6.440;2022-08-21T00:37:59;14.20;99.90
52675;DHT22;38569;52.722;6.440;2022-08-21T00:40:36;14.20;99.90
52675;DHT22;38569;52.722;6.440;2022-08-21T00:43:04;14.20;99.90
52675;DHT22;38569;52.722;6.440;2022-08-21T00:45:31;14.20;99.90
52675;DHT22;38569;52.722;6.440;2022-08-21T00:47:57;14.10;99.90
52675;DHT22;38569;52.722;6.440;2022-08-21T00:50:26;14.10;99.90
52675;DHT22;38569;52.722;6.440;2022-08-21T00:52:53;14.10;99.90
52675;DHT22;38569;52.722;6.440;2022-08-21T00:55:20;14.10;99.90
52675;DHT22;38569;52.722;6.440;2022-08-21T00:57:51;14.10;99.90
52675;DHT22;38569;52.722;6.440;2022-08-21T01:00:30;14.10;99.90
52675;DHT22;38569;52.722;6.440;2022-08-21T01:02:58;14.10;99.90
52675;DHT22;38569;52.722;6.440;2022-08-21T01:05:24;14.10;99.90
52675;DHT22;38569;52.722;6.440;2022-08-21T01:07:50;14.10;99.90
52675;DHT22;38569;52.722;6.440;2022-08-21T01:10:17;14.20;99.90
52675;DHT22;38569;52.722;6.440;2022-08-21T01:12:43;14.20;99.90
52675;DHT22;38569;52.722;6.440;2022-08-21T01:15:09;14.20;99.90
52675;DHT22;38569;52.722;6.440;2022-08-21T01:17:36;14.10;99.90
52675;DHT22;38569;52.722;6.440;2022-08-21T01:20:05;14.10;99.90
52675;DHT22;38569;52.722;6.440;2022-08-21T01:22:31;14.20;99.90
52675;DHT22;38569;52.722;6.440;2022-08-21T01:24:57;14.10;99.90
52675;DHT22;38569;52.722;6.440;2022-08-21T01:27:23;14.10;99.90
52675;DHT22;38569;52.722;6.440;2022-08-21T01:29:58;14.10;99.90
52675;DHT22;38569;52.722;6.440;2022-08-21T01:32:25;14.10;99.90
52675;DHT22;38569;52.722;6.440;2022-08-21T01:34:51;14.10;99.90
52675;DHT22;38569;52.722;6.440;2022-08-21T01:37:18;14.10;99.90
52675;DHT22;38569;52.722;6.440;2022-08-21T01:39:45;14.10;99.90
52675;DHT22;38569;52.722;6.440;2022-08-21T01:42:11;14.10;99.90
52675;DHT22;38569;52.722;6.440;2022-08-21T01:44:37;14.00;99.90
52675;DHT22;38569;52.722;6.440;2022-08-21T01:47:06;14.00;99.90
52675;DHT22;38569;52.722;6.440;2022-08-21T01:49:33;14.00;99.90
52675;DHT22;38569;52.722;6.440;2022-08-21T01:51:59;13.90;99.90
52675;DHT22;38569;52.722;6.440;2022-08-21T01:54:25;13.90;99.90
52675;DHT22;38569;52.722;6.440;2022-08-21T01:56:52;14.00;99.90
52675;DHT22;38569;52.722;6.440;2022-08-21T01:59:19;14.00;99.90
52675;DHT22;38569;52.722;6.440;2022-08-21T02:01:44;14.00;99.90
52675;DHT22;38569;52.722;6.440;2022-08-21T02:04:10;14.10;99.90
52675;DHT22;38569;52.722;6.440;2022-08-21T02:06:36;14.10;99.90
52675;DHT22;38569;52.722;6.440;2022-08-21T02:09:07;14.10;99.90
52675;DHT22;38569;52.722;6.440;2022-08-21T02:11:34;14.20;99.90
52675;DHT22;38569;52.722;6.440;2022-08-21T02:14:00;14.20;99.90
52675;DHT22;38569;52.722;6.440;2022-08-21T02:16:26;14.20;99.90
52675;DHT22;38569;52.722;6.440;2022-08-21T02:18:52;14.30;99.90
52675;DHT22;38569;52.722;6.440;2022-08-21T02:21:17;14.30;99.90
52675;DHT22;38569;52.722;6.440;2022-08-21T02:23:44;14.20;99.90
52675;DHT22;38569;52.722;6.440;2022-08-21T02:26:10;14.20;99.90
52675;DHT22;38569;52.722;6.440;2022-08-21T02:28:36;14.10;99.90
52675;DHT22;38569;52.722;6.440;2022-08-21T02:31:02;14.10;99.90
52675;DHT22;38569;52.722;6.440;2022-08-21T02:33:28;14.00;99.90
52675;DHT22;38569;52.722;6.440;2022-08-21T02:35:55;13.90;99.90
52675;DHT22;38569;52.722;6.440;2022-08-21T02:38:26;13.90;99.90
52675;DHT22;38569;52.722;6.440;2022-08-21T02:40:53;13.90;99.90
52675;DHT22;38569;52.722;6.440;2022-08-21T02:43:21;13.90;99.90
52675;DHT22;38569;52.722;6.440;2022-08-21T02:45:48;13.90;99.90
52675;DHT22;38569;52.722;6.440;2022-08-21T02:48:17;13.90;99.90
52675;DHT22;38569;52.722;6.440;2022-08-21T02:50:51;13.90;99.90
52675;DHT22;38569;52.722;6.440;2022-08-21T02:53:18;13.80;99.90
52675;DHT22;38569;52.722;6.440;2022-08-21T02:55:46;13.70;99.90
52675;DHT22;38569;52.722;6.440;2022-08-21T02:58:14;13.60;99.90
52675;DHT22;38569;52.722;6.440;2022-08-21T03:00:41;13.60;99.90
52675;DHT22;38569;52.722;6.440;2022-08-21T03:03:07;13.50;99.90
52675;DHT22;38569;52.722;6.440;2022-08-21T03:05:34;13.50;99.90
52675;DHT22;38569;52.722;6.440;2022-08-21T03:08:01;13.40;99.90
52675;DHT22;38569;52.722;6.440;2022-08-21T03:10:28;13.40;99.90
52675;DHT22;38569;52.722;6.440;2022-08-21T03:12:54;13.30;99.90
52675;DHT22;38569;52.722;6.440;2022-08-21T03:15:22;13.30;99.90
52675;DHT22;38569;52.722;6.440;2022-08-21T03:17:50;13.40;99.90
52675;DHT22;38569;52.722;6.440;2022-08-21T03:20:17;13.50;99.90
52675;DHT22;38569;52.722;6.440;2022-08-21T03:22:45;13.60;99.90
52675;DHT22;38569;52.722;6.440;2022-08-21T03:25:11;13.60;99.90
52675;DHT22;38569;52.722;6.440;2022-08-21T03:27:37;13.60;99.90
52675;DHT22;38569;52.722;6.440;2022-08-21T03:30:04;13.70;99.90
52675;DHT22;38569;52.722;6.440;2022-08-21T03:32:30;13.60;99.90
52675;DHT22;38569;52.722;6.440;2022-08-21T03:34:57;13.60;99.90
52675;DHT22;38569;52.722;6.440;2022-08-21T03:37:23;13.50;99.90
52675;DHT22;38569;52.722;6.440;2022-08-21T03:39:50;13.50;99.90
52675;DHT22;38569;52.722;6.440;2022-08-21T03:42:16;13.50;99.90
52675;DHT22;38569;52.722;6.440;2022-08-21T03:44:41;13.50;99.90
52675;DHT22;38569;52.722;6.440;2022-08-21T03:47:08;13.40;99.90
52675;DHT22;38569;52.722;6.440;2022-08-21T03:49:34;13.40;99.90
52675;DHT22;38569;52.722;6.440;2022-08-21T03:52:00;13.50;99.90
52675;DHT22;38569;52.722;6.440;2022-08-21T03:54:26;13.60;99.90
52675;DHT22;38569;52.722;6.440;2022-08-21T03:56:52;13.60;99.90
52675;DHT22;38569;52.722;6.440;2022-08-21T03:59:18;13.60;99.90
52675;DHT22;38569;52.722;6.440;2022-08-21T04:01:54;13.50;99.90
52675;DHT22;38569;52.722;6.440;2022-08-21T04:04:20;13.50;99.90
52675;DHT22;38569;52.722;6.440;2022-08-21T04:06:47;13.40;99.90
52675;DHT22;38569;52.722;6.440;2022-08-21T04:09:12;13.30;99.90
52675;DHT22;38569;52.722;6.440;2022-08-21T04:11:38;13.30;99.90
52675;DHT22;38569;52.722;6.440;2022-08-21T04:14:04;13.20;99.90
52675;DHT22;38569;52.722;6.440;2022-08-21T04:16:30;13.20;99.90
52675;DHT22;38569;52.722;6.440;2022-08-21T04:18:56;13.20;99.90
52675;DHT22;38569;52.722;6.440;2022-08-21T04:21:22;13.10;99.90
52675;DHT22;38569;52.722;6.440;2022-08-21T04:23:48;13.20;99.90
52675;DHT22;38569;52.722;6.440;2022-08-21T04:26:14;13.20;99.90
52675;DHT22;38569;52.722;6.440;2022-08-21T04:28:41;13.30;99.90
52675;DHT22;38569;52.722;6.440;2022-08-21T04:31:08;13.40;99.90
52675;DHT22;38569;52.722;6.440;2022-08-21T04:33:33;13.40;99.90
52675;DHT22;38569;52.722;6.440;2022-08-21T04:35:59;13.50;99.90
52675;DHT22;38569;52.722;6.440;2022-08-21T04:38:25;13.50;99.90
52675;DHT22;38569;52.722;6.440;2022-08-21T04:40:52;13.60;99.90
52675;DHT22;38569;52.722;6.440;2022-08-21T04:43:18;13.70;99.90
52675;DHT22;38569;52.722;6.440;2022-08-21T04:45:46;13.80;99.90
52675;DHT22;38569;52.722;6.440;2022-08-21T04:48:15;13.80;99.90
52675;DHT22;38569;52.722;6.440;2022-08-21T04:53:34;13.90;99.90
52675;DHT22;38569;52.722;6.440;2022-08-21T04:56:05;13.90;99.90
52675;DHT22;38569;52.722;6.440;2022-08-21T04:58:34;14.00;99.90
52675;DHT22;38569;52.722;6.440;2022-08-21T05:01:00;14.00;99.90
52675;DHT22;38569;52.722;6.440;2022-08-21T05:03:27;14.10;99.90
52675;DHT22;38569;52.722;6.440;2022-08-21T05:05:54;14.20;99.90
52675;DHT22;38569;52.722;6.440;2022-08-21T05:08:21;14.30;99.90
52675;DHT22;38569;52.722;6.440;2022-08-21T05:10:49;14.30;99.90
52675;DHT22;38569;52.722;6.440;2022-08-21T05:13:15;14.40;99.90
52675;DHT22;38569;52.722;6.440;2022-08-21T05:15:41;14.50;99.90
52675;DHT22;38569;52.722;6.440;2022-08-21T05:18:08;14.60;99.90
52675;DHT22;38569;52.722;6.440;2022-08-21T05:20:34;14.60;99.90
52675;DHT22;38569;52.722;6.440;2022-08-21T05:23:01;14.70;99.90
52675;DHT22;38569;52.722;6.440;2022-08-21T05:25:27;14.80;99.90
52675;DHT22;38569;52.722;6.440;2022-08-21T05:27:53;14.80;99.90
52675;DHT22;38569;52.722;6.440;2022-08-21T05:30:20;14.90;99.90
52675;DHT22;38569;52.722;6.440;2022-08-21T05:32:46;14.90;99.90
52675;DHT22;38569;52.722;6.440;2022-08-21T05:35:13;15.00;99.90
52675;DHT22;38569;52.722;6.440;2022-08-21T05:37:39;15.10;99.90
52675;DHT22;38569;52.722;6.440;2022-08-21T05:40:06;15.10;99.90
52675;DHT22;38569;52.722;6.440;2022-08-21T05:42:33;15.20;99.90
52675;DHT22;38569;52.722;6.440;2022-08-21T05:44:59;15.30;99.90
52675;DHT22;38569;52.722;6.440;2022-08-21T05:47:24;15.30;99.90
52675;DHT22;38569;52.722;6.440;2022-08-21T05:49:50;15.40;99.90
52675;DHT22;38569;52.722;6.440;2022-08-21T05:52:20;15.50;99.90
52675;DHT22;38569;52.722;6.440;2022-08-21T05:54:46;15.50;99.90
52675;DHT22;38569;52.722;6.440;2022-08-21T05:57:11;15.60;99.90
52675;DHT22;38569;52.722;6.440;2022-08-21T05:59:37;15.70;99.90
52675;DHT22;38569;52.722;6.440;2022-08-21T06:02:03;15.70;99.90
52675;DHT22;38569;52.722;6.440;2022-08-21T06:04:29;15.80;99.90
52675;DHT22;38569;52.722;6.440;2022-08-21T06:06:55;15.90;99.90
52675;DHT22;38569;52.722;6.440;2022-08-21T06:09:21;16.00;99.90
52675;DHT22;38569;52.722;6.440;2022-08-21T06:11:46;16.10;99.90
52675;DHT22;38569;52.722;6.440;2022-08-21T06:14:15;16.10;99.90
52675;DHT22;38569;52.722;6.440;2022-08-21T06:16:42;16.20;99.90
52675;DHT22;38569;52.722;6.440;2022-08-21T06:19:07;16.30;99.90
52675;DHT22;38569;52.722;6.440;2022-08-21T06:21:33;16.40;99.90
52675;DHT22;38569;52.722;6.440;2022-08-21T06:23:59;16.50;99.90
52675;DHT22;38569;52.722;6.440;2022-08-21T06:26:25;16.60;99.90
52675;DHT22;38569;52.722;6.440;2022-08-21T06:28:50;16.60;99.90
52675;DHT22;38569;52.722;6.440;2022-08-21T06:31:19;16.60;99.90
52675;DHT22;38569;52.722;6.440;2022-08-21T06:33:46;16.70;99.90
52675;DHT22;38569;52.722;6.440;2022-08-21T06:36:12;16.80;99.90
52675;DHT22;38569;52.722;6.440;2022-08-21T06:38:38;16.90;99.90
52675;DHT22;38569;52.722;6.440;2022-08-21T06:41:04;17.00;99.90
52675;DHT22;38569;52.722;6.440;2022-08-21T06:43:30;17.00;99.90
52675;DHT22;38569;52.722;6.440;2022-08-21T06:45:56;17.10;99.90
52675;DHT22;38569;52.722;6.440;2022-08-21T06:48:22;17.20;99.90
52675;DHT22;38569;52.722;6.440;2022-08-21T06:50:48;17.30;99.90
52675;DHT22;38569;52.722;6.440;2022-08-21T06:53:18;17.40;99.90
52675;DHT22;38569;52.722;6.440;2022-08-21T06:55:44;17.50;99.90
52675;DHT22;38569;52.722;6.440;2022-08-21T06:58:11;17.60;99.90
52675;DHT22;38569;52.722;6.440;2022-08-21T07:00:43;17.70;99.90
52675;DHT22;38569;52.722;6.440;2022-08-21T07:03:20;17.80;99.90
52675;DHT22;38569;52.722;6.440;2022-08-21T07:05:46;17.80;99.90
52675;DHT22;38569;52.722;6.440;2022-08-21T07:08:12;17.90;99.90
52675;DHT22;38569;52.722;6.440;2022-08-21T07:10:38;18.00;99.90
52675;DHT22;38569;52.722;6.440;2022-08-21T07:13:03;18.10;99.90
52675;DHT22;38569;52.722;6.440;2022-08-21T07:15:29;18.20;99.90
52675;DHT22;38569;52.722;6.440;2022-08-21T07:17:55;18.30;99.90
52675;DHT22;38569;52.722;6.440;2022-08-21T07:20:22;18.30;99.90
52675;DHT22;38569;52.722;6.440;2022-08-21T07:22:48;18.50;99.90
52675;DHT22;38569;52.722;6.440;2022-08-21T07:25:13;18.60;99.90
52675;DHT22;38569;52.722;6.440;2022-08-21T07:27:39;18.70;99.90
52675;DHT22;38569;52.722;6.440;2022-08-21T07:30:05;18.80;99.90
52675;DHT22;38569;52.722;6.440;2022-08-21T07:32:31;18.90;99.90
52675;DHT22;38569;52.722;6.440;2022-08-21T07:34:57;18.90;99.90
52675;DHT22;38569;52.722;6.440;2022-08-21T07:37:23;19.00;99.90
52675;DHT22;38569;52.722;6.440;2022-08-21T07:39:49;19.00;99.90
52675;DHT22;38569;52.722;6.440;2022-08-21T07:42:16;19.10;99.90
52675;DHT22;38569;52.722;6.440;2022-08-21T07:44:42;19.20;99.90
52675;DHT22;38569;52.722;6.440;2022-08-21T07:47:08;19.20;99.90
52675;DHT22;38569;52.722;6.440;2022-08-21T07:49:34;19.30;99.90
52675;DHT22;38569;52.722;6.440;2022-08-21T07:52:00;19.40;99.90
52675;DHT22;38569;52.722;6.440;2022-08-21T07:54:26;19.40;99.90
52675;DHT22;38569;52.722;6.440;2022-08-21T07:56:52;19.50;99.90
52675;DHT22;38569;52.722;6.440;2022-08-21T07:59:18;19.50;99.90
52675;DHT22;38569;52.722;6.440;2022-08-21T08:01:44;19.50;99.90
52675;DHT22;38569;52.722;6.440;2022-08-21T08:04:09;19.60;99.90
52675;DHT22;38569;52.722;6.440;2022-08-21T08:06:35;19.70;99.90
52675;DHT22;38569;52.722;6.440;2022-08-21T08:09:01;19.70;99.90
52675;DHT22;38569;52.722;6.440;2022-08-21T08:11:28;19.80;99.90
52675;DHT22;38569;52.722;6.440;2022-08-21T08:13:54;19.90;99.90
52675;DHT22;38569;52.722;6.440;2022-08-21T08:16:22;20.00;99.90
52675;DHT22;38569;52.722;6.440;2022-08-21T08:18:48;20.00;99.90
52675;DHT22;38569;52.722;6.440;2022-08-21T08:21:14;20.10;99.90
52675;DHT22;38569;52.722;6.440;2022-08-21T08:23:40;20.10;99.90
52675;DHT22;38569;52.722;6.440;2022-08-21T08:26:05;20.20;99.90
52675;DHT22;38569;52.722;6.440;2022-08-21T08:28:32;20.40;99.90
52675;DHT22;38569;52.722;6.440;2022-08-21T08:30:59;20.90;99.90
52675;DHT22;38569;52.722;6.440;2022-08-21T08:33:25;21.50;99.90
52675;DHT22;38569;52.722;6.440;2022-08-21T08:35:51;22.60;99.90
52675;DHT22;38569;52.722;6.440;2022-08-21T08:38:18;23.60;99.90
52675;DHT22;38569;52.722;6.440;2022-08-21T08:43:33;25.10;99.90
52675;DHT22;38569;52.722;6.440;2022-08-21T08:46:03;25.80;99.90
52675;DHT22;38569;52.722;6.440;2022-08-21T08:48:46;26.10;98.00
52675;DHT22;38569;52.722;6.440;2022-08-21T08:51:25;26.80;94.30
52675;DHT22;38569;52.722;6.440;2022-08-21T08:53:58;27.20;91.60
52675;DHT22;38569;52.722;6.440;2022-08-21T08:56:30;27.60;90.10
52675;DHT22;38569;52.722;6.440;2022-08-21T08:59:05;27.90;84.50
52675;DHT22;38569;52.722;6.440;2022-08-21T09:01:33;28.00;85.40
52675;DHT22;38569;52.722;6.440;2022-08-21T09:03:58;28.30;82.00
52675;DHT22;38569;52.722;6.440;2022-08-21T09:14:52;29.50;74.30
52675;DHT22;38569;52.722;6.440;2022-08-21T09:20:19;29.60;72.10
52675;DHT22;38569;52.722;6.440;2022-08-21T09:25:45;30.20;71.00
52675;DHT22;38569;52.722;6.440;2022-08-21T09:28:12;30.40;69.60
52675;DHT22;38569;52.722;6.440;2022-08-21T09:30:40;30.30;70.20
52675;DHT22;38569;52.722;6.440;2022-08-21T09:33:07;30.30;69.20
52675;DHT22;38569;52.722;6.440;2022-08-21T09:35:33;30.10;69.00
52675;DHT22;38569;52.722;6.440;2022-08-21T09:38:04;30.20;68.90
52675;DHT22;38569;52.722;6.440;2022-08-21T09:40:43;30.20;68.80
52675;DHT22;38569;52.722;6.440;2022-08-21T09:45:39;31.10;67.60
52675;DHT22;38569;52.722;6.440;2022-08-21T09:48:17;31.20;67.00
52675;DHT22;38569;52.722;6.440;2022-08-21T09:50:45;31.40;65.90
52675;DHT22;38569;52.722;6.440;2022-08-21T09:53:30;31.90;65.50
52675;DHT22;38569;52.722;6.440;2022-08-21T09:56:04;31.90;63.90
52675;DHT22;38569;52.722;6.440;2022-08-21T09:58:50;32.10;64.30
52675;DHT22;38569;52.722;6.440;2022-08-21T10:01:26;31.60;63.80
52675;DHT22;38569;52.722;6.440;2022-08-21T10:04:07;30.50;64.00
52675;DHT22;38569;52.722;6.440;2022-08-21T10:06:33;30.40;66.30
52675;DHT22;38569;52.722;6.440;2022-08-21T10:09:16;31.60;66.20
52675;DHT22;38569;52.722;6.440;2022-08-21T10:11:59;32.10;64.80
52675;DHT22;38569;52.722;6.440;2022-08-21T10:18:27;31.80;62.80
52675;DHT22;38569;52.722;6.440;2022-08-21T10:20:35;31.70;63.20
52675;DHT22;38569;52.722;6.440;2022-08-21T10:28:26;32.50;60.60
52675;DHT22;38569;52.722;6.440;2022-08-21T10:36:33;31.90;58.80
52675;DHT22;38569;52.722;6.440;2022-08-21T10:58:50;29.30;68.40
52675;DHT22;38569;52.722;6.440;2022-08-21T11:01:28;29.90;67.60
52675;DHT22;38569;52.722;6.440;2022-08-21T11:04:19;30.90;63.90
52675;DHT22;38569;52.722;6.440;2022-08-21T11:06:50;31.20;63.50
52675;DHT22;38569;52.722;6.440;2022-08-21T11:09:21;30.90;63.30
52675;DHT22;38569;52.722;6.440;2022-08-21T11:12:25;31.50;63.80
52675;DHT22;38569;52.722;6.440;2022-08-21T11:15:00;31.70;61.60
52675;DHT22;38569;52.722;6.440;2022-08-21T11:17:35;32.10;59.80
52675;DHT22;38569;52.722;6.440;2022-08-21T11:20:24;31.50;60.00
52675;DHT22;38569;52.722;6.440;2022-08-21T11:23:10;31.20;61.70
52675;DHT22;38569;52.722;6.440;2022-08-21T11:25:42;31.30;61.90
52675;DHT22;38569;52.722;6.440;2022-08-21T11:33:56;32.00;59.50
52675;DHT22;38569;52.722;6.440;2022-08-21T11:39:24;31.60;58.90
52675;DHT22;38569;52.722;6.440;2022-08-21T11:42:00;31.10;60.10
52675;DHT22;38569;52.722;6.440;2022-08-21T11:44:49;30.80;60.40
52675;DHT22;38569;52.722;6.440;2022-08-21T11:47:23;30.70;61.40
52675;DHT22;38569;52.722;6.440;2022-08-21T11:50:13;31.20;61.70
52675;DHT22;38569;52.722;6.440;2022-08-21T11:53:32;31.40;59.20
52675;DHT22;38569;52.722;6.440;2022-08-21T11:55:51;31.40;59.20
52675;DHT22;38569;52.722;6.440;2022-08-21T11:58:36;31.30;58.60
52675;DHT22;38569;52.722;6.440;2022-08-21T12:01:07;31.20;57.30
52675;DHT22;38569;52.722;6.440;2022-08-21T12:03:42;31.10;58.40
52675;DHT22;38569;52.722;6.440;2022-08-21T12:06:14;31.20;58.30
52675;DHT22;38569;52.722;6.440;2022-08-21T12:08:45;31.00;58.30
52675;DHT22;38569;52.722;6.440;2022-08-21T12:14:15;30.30;59.30
52675;DHT22;38569;52.722;6.440;2022-08-21T12:16:43;30.10;59.60
52675;DHT22;38569;52.722;6.440;2022-08-21T12:21:59;29.80;61.30
52675;DHT22;38569;52.722;6.440;2022-08-21T12:24:42;29.10;60.90
52675;DHT22;38569;52.722;6.440;2022-08-21T12:29:49;28.30;64.10
52675;DHT22;38569;52.722;6.440;2022-08-21T12:34:47;28.00;64.50
52675;DHT22;38569;52.722;6.440;2022-08-21T12:39:55;28.00;65.40
52675;DHT22;38569;52.722;6.440;2022-08-21T12:42:30;27.90;65.10
52675;DHT22;38569;52.722;6.440;2022-08-21T12:45:04;27.90;65.40
52675;DHT22;38569;52.722;6.440;2022-08-21T12:47:43;27.90;65.10
52675;DHT22;38569;52.722;6.440;2022-08-21T12:50:21;27.90;65.20
52675;DHT22;38569;52.722;6.440;2022-08-21T12:55:48;28.10;66.80
52675;DHT22;38569;52.722;6.440;2022-08-21T12:58:22;28.10;65.80
52675;DHT22;38569;52.722;6.440;2022-08-21T13:01:05;28.00;65.00
52675;DHT22;38569;52.722;6.440;2022-08-21T13:03:35;27.70;64.40
52675;DHT22;38569;52.722;6.440;2022-08-21T13:06:03;27.60;65.70
52675;DHT22;38569;52.722;6.440;2022-08-21T13:08:29;27.80;65.70
52675;DHT22;38569;52.722;6.440;2022-08-21T13:11:05;28.00;64.70
52675;DHT22;38569;52.722;6.440;2022-08-21T13:13:33;28.30;65.00
52675;DHT22;38569;52.722;6.440;2022-08-21T13:16:04;28.70;64.30
52675;DHT22;38569;52.722;6.440;2022-08-21T13:18:33;29.10;64.60
52675;DHT22;38569;52.722;6.440;2022-08-21T13:21:09;29.50;63.30
52675;DHT22;38569;52.722;6.440;2022-08-21T13:23:36;29.50;62.40
52675;DHT22;38569;52.722;6.440;2022-08-21T13:26:29;29.30;63.80
52675;DHT22;38569;52.722;6.440;2022-08-21T13:29:07;29.10;63.80
52675;DHT22;38569;52.722;6.440;2022-08-21T13:31:33;28.70;66.00
52675;DHT22;38569;52.722;6.440;2022-08-21T13:33:59;28.90;64.90
52675;DHT22;38569;52.722;6.440;2022-08-21T13:36:29;29.00;64.30
52675;DHT22;38569;52.722;6.440;2022-08-21T13:38:56;29.00;64.50
52675;DHT22;38569;52.722;6.440;2022-08-21T13:41:31;28.90;63.90
52675;DHT22;38569;52.722;6.440;2022-08-21T13:44:05;29.00;64.50
52675;DHT22;38569;52.722;6.440;2022-08-21T13:46:39;29.20;63.90
52675;DHT22;38569;52.722;6.440;2022-08-21T13:49:06;29.00;64.20
52675;DHT22;38569;52.722;6.440;2022-08-21T13:51:34;28.50;65.50
52675;DHT22;38569;52.722;6.440;2022-08-21T13:54:00;28.50;66.10
52675;DHT22;38569;52.722;6.440;2022-08-21T13:56:33;28.50;65.30
52675;DHT22;38569;52.722;6.440;2022-08-21T13:59:06;28.50;65.30
52675;DHT22;38569;52.722;6.440;2022-08-21T14:01:36;28.30;66.10
52675;DHT22;38569;52.722;6.440;2022-08-21T14:04:22;28.20;66.70
52675;DHT22;38569;52.722;6.440;2022-08-21T14:06:49;28.00;66.20
52675;DHT22;38569;52.722;6.440;2022-08-21T14:09:28;27.70;66.80
52675;DHT22;38569;52.722;6.440;2022-08-21T14:11:56;27.50;67.40
52675;DHT22;38569;52.722;6.440;2022-08-21T14:14:29;27.30;67.30
52675;DHT22;38569;52.722;6.440;2022-08-21T14:17:02;27.20;68.30
52675;DHT22;38569;52.722;6.440;2022-08-21T14:19:40;27.00;68.50
52675;DHT22;38569;52.722;6.440;2022-08-21T14:25:12;26.80;70.30
52675;DHT22;38569;52.722;6.440;2022-08-21T14:27:44;26.70;71.60
52675;DHT22;38569;52.722;6.440;2022-08-21T14:30:21;26.50;70.80
52675;DHT22;38569;52.722;6.440;2022-08-21T14:32:47;26.50;70.40
52675;DHT22;38569;52.722;6.440;2022-08-21T14:35:14;26.30;71.20
52675;DHT22;38569;52.722;6.440;2022-08-21T14:37:44;26.50;71.90
52675;DHT22;38569;52.722;6.440;2022-08-21T14:40:11;26.90;71.60
52675;DHT22;38569;52.722;6.440;2022-08-21T14:42:37;27.10;70.60
52675;DHT22;38569;52.722;6.440;2022-08-21T14:45:41;27.10;69.70
52675;DHT22;38569;52.722;6.440;2022-08-21T14:48:02;27.00;69.30
52675;DHT22;38569;52.722;6.440;2022-08-21T14:50:28;26.90;69.20
52675;DHT22;38569;52.722;6.440;2022-08-21T14:52:54;26.90;69.90
52675;DHT22;38569;52.722;6.440;2022-08-21T14:55:20;26.70;70.90
52675;DHT22;38569;52.722;6.440;2022-08-21T14:57:50;26.60;71.00
52675;DHT22;38569;52.722;6.440;2022-08-21T15:00:22;26.50;71.40
52675;DHT22;38569;52.722;6.440;2022-08-21T15:02:49;26.20;72.30
52675;DHT22;38569;52.722;6.440;2022-08-21T15:05:16;26.20;72.90
52675;DHT22;38569;52.722;6.440;2022-08-21T15:07:41;26.10;74.50
52675;DHT22;38569;52.722;6.440;2022-08-21T15:10:08;26.30;73.50
52675;DHT22;38569;52.722;6.440;2022-08-21T15:12:34;26.20;73.10
52675;DHT22;38569;52.722;6.440;2022-08-21T15:15:00;26.20;73.20
52675;DHT22;38569;52.722;6.440;2022-08-21T15:17:26;26.20;72.70
52675;DHT22;38569;52.722;6.440;2022-08-21T15:19:52;26.20;73.10
52675;DHT22;38569;52.722;6.440;2022-08-21T15:22:17;26.30;73.40
52675;DHT22;38569;52.722;6.440;2022-08-21T15:24:44;26.40;74.20
52675;DHT22;38569;52.722;6.440;2022-08-21T15:27:11;26.50;73.10
52675;DHT22;38569;52.722;6.440;2022-08-21T15:29:37;26.50;73.20
52675;DHT22;38569;52.722;6.440;2022-08-21T15:32:22;26.50;74.00
52675;DHT22;38569;52.722;6.440;2022-08-21T15:34:50;26.60;75.60
52675;DHT22;38569;52.722;6.440;2022-08-21T15:37:15;26.60;74.30
52675;DHT22;38569;52.722;6.440;2022-08-21T15:39:41;26.50;74.40
52675;DHT22;38569;52.722;6.440;2022-08-21T15:42:07;26.40;73.60
52675;DHT22;38569;52.722;6.440;2022-08-21T15:44:33;26.40;74.60
52675;DHT22;38569;52.722;6.440;2022-08-21T15:46:59;26.40;74.60
52675;DHT22;38569;52.722;6.440;2022-08-21T15:49:25;26.20;74.60
52675;DHT22;38569;52.722;6.440;2022-08-21T15:51:51;26.10;75.70
52675;DHT22;38569;52.722;6.440;2022-08-21T15:54:17;26.20;74.60
52675;DHT22;38569;52.722;6.440;2022-08-21T15:56:45;26.20;74.60
52675;DHT22;38569;52.722;6.440;2022-08-21T15:59:15;26.20;74.10
52675;DHT22;38569;52.722;6.440;2022-08-21T16:01:42;26.20;74.00
52675;DHT22;38569;52.722;6.440;2022-08-21T16:04:09;26.10;73.90
52675;DHT22;38569;52.722;6.440;2022-08-21T16:06:35;26.00;75.10
52675;DHT22;38569;52.722;6.440;2022-08-21T16:09:01;26.10;76.00
52675;DHT22;38569;52.722;6.440;2022-08-21T16:11:27;26.00;74.20
52675;DHT22;38569;52.722;6.440;2022-08-21T16:13:54;25.80;74.80
52675;DHT22;38569;52.722;6.440;2022-08-21T16:16:21;25.70;75.00
52675;DHT22;38569;52.722;6.440;2022-08-21T16:18:49;25.60;75.50
52675;DHT22;38569;52.722;6.440;2022-08-21T16:21:16;25.60;75.90
52675;DHT22;38569;52.722;6.440;2022-08-21T16:23:42;25.40;76.10
52675;DHT22;38569;52.722;6.440;2022-08-21T16:26:10;25.30;76.40
52675;DHT22;38569;52.722;6.440;2022-08-21T16:28:41;25.20;78.50
52675;DHT22;38569;52.722;6.440;2022-08-21T16:31:08;25.20;78.30
52675;DHT22;38569;52.722;6.440;2022-08-21T16:33:43;25.10;76.70
52675;DHT22;38569;52.722;6.440;2022-08-21T16:36:10;24.80;78.70
52675;DHT22;38569;52.722;6.440;2022-08-21T16:38:36;24.70;79.90
52675;DHT22;38569;52.722;6.440;2022-08-21T16:41:04;24.70;80.50
52675;DHT22;38569;52.722;6.440;2022-08-21T16:43:32;24.70;80.70
52675;DHT22;38569;52.722;6.440;2022-08-21T16:45:58;24.70;80.60
52675;DHT22;38569;52.722;6.440;2022-08-21T16:48:26;24.60;81.00
52675;DHT22;38569;52.722;6.440;2022-08-21T16:50:54;24.50;81.60
52675;DHT22;38569;52.722;6.440;2022-08-21T16:53:20;24.30;82.10
52675;DHT22;38569;52.722;6.440;2022-08-21T16:55:46;24.20;83.60
52675;DHT22;38569;52.722;6.440;2022-08-21T16:58:39;24.20;83.80
52675;DHT22;38569;52.722;6.440;2022-08-21T17:01:09;24.00;85.00
52675;DHT22;38569;52.722;6.440;2022-08-21T17:03:40;23.80;85.70
52675;DHT22;38569;52.722;6.440;2022-08-21T17:06:07;23.80;86.30